sensor_id;sensor_type;location;lat;lon;timestamp;P1;durP1;ratioP1;P2;durP2;ratioP2
2710;SDS011;20721;47.402;8.550;2023-04-12T00:00:20;1.49;;;1.49;;
2710;SDS011;20721;47.402;8.550;2023-04-12T00:01:18;2.01;;;2.01;;
2710;SDS011;20721;47.402;8.550;2023-04-12T00:02:18;1.46;;;1.46;;
2710;SDS011;20721;47.402;8.550;2023-04-12T00:03:19;1.48;;;1.48;;
2710;SDS011;20721;47.402;8.550;2023-04-12T00:05:20;1.39;;;1.39;;
2710;SDS011;20721;47.402;8.550;2023-04-12T00:06:19;1.64;;;1.64;;
2710;SDS011;20721;47.402;8.550;2023-04-12T00:07:19;1.47;;;1.47;;
2710;SDS011;20721;47.402;8.550;2023-04-12T00:08:20;1.51;;;1.51;;
2710;SDS011;20721;47.402;8.550;2023-04-12T00:09:18;0.96;;;0.96;;
2710;SDS011;20721;47.402;8.550;2023-04-12T00:10:18;0.99;;;0.99;;
2710;SDS011;20721;47.402;8.550;2023-04-12T00:11:18;1.24;;;1.24;;
2710;SDS011;20721;47.402;8.550;2023-04-12T00:12:18;1.49;;;1.49;;
2710;SDS011;20721;47.402;8.550;2023-04-12T00:13:18;1.16;;;1.16;;
2710;SDS011;20721;47.402;8.550;2023-04-12T00:14:18;1.50;;;1.50;;
2710;SDS011;20721;47.402;8.550;2023-04-12T00:15:18;1.25;;;1.25;;
2710;SDS011;20721;47.402;8.550;2023-04-12T00:16:18;1.44;;;1.44;;
2710;SDS011;20721;47.402;8.550;2023-04-12T00:17:18;1.76;;;1.76;;
2710;SDS011;20721;47.402;8.550;2023-04-12T00:18:18;1.29;;;1.29;;
2710;SDS011;20721;47.402;8.550;2023-04-12T00:19:18;1.46;;;1.46;;
2710;SDS011;20721;47.402;8.550;2023-04-12T00:20:21;0.99;;;0.99;;
2710;SDS011;20721;47.402;8.550;2023-04-12T00:21:19;1.08;;;1.08;;
2710;SDS011;20721;47.402;8.550;2023-04-12T00:22:20;1.38;;;1.38;;
2710;SDS011;20721;47.402;8.550;2023-04-12T00:23:19;1.02;;;1.02;;
2710;SDS011;20721;47.402;8.550;2023-04-12T00:24:18;1.31;;;1.31;;
2710;SDS011;20721;47.402;8.550;2023-04-12T00:25:24;1.24;;;1.24;;
2710;SDS011;20721;47.402;8.550;2023-04-12T00:26:18;1.71;;;1.71;;
2710;SDS011;20721;47.402;8.550;2023-04-12T00:27:18;1.05;;;1.05;;
2710;SDS011;20721;47.402;8.550;2023-04-12T00:28:19;1.45;;;1.45;;
2710;SDS011;20721;47.402;8.550;2023-04-12T00:29:18;1.60;;;1.60;;
2710;SDS011;20721;47.402;8.550;2023-04-12T00:30:18;1.56;;;1.56;;
2710;SDS011;20721;47.402;8.550;2023-04-12T00:31:18;1.09;;;1.09;;
2710;SDS011;20721;47.402;8.550;2023-04-12T00:32:18;1.49;;;1.49;;
2710;SDS011;20721;47.402;8.550;2023-04-12T00:33:18;1.13;;;1.13;;
2710;SDS011;20721;47.402;8.550;2023-04-12T00:34:18;1.67;;;1.67;;
2710;SDS011;20721;47.402;8.550;2023-04-12T00:36:18;1.19;;;1.19;;
2710;SDS011;20721;47.402;8.550;2023-04-12T00:37:18;1.56;;;1.56;;
2710;SDS011;20721;47.402;8.550;2023-04-12T00:39:18;1.21;;;1.21;;
2710;SDS011;20721;47.402;8.550;2023-04-12T00:40:19;1.13;;;1.13;;
2710;SDS011;20721;47.402;8.550;2023-04-12T00:41:18;1.01;;;1.01;;
2710;SDS011;20721;47.402;8.550;2023-04-12T00:42:18;1.69;;;1.69;;
2710;SDS011;20721;47.402;8.550;2023-04-12T00:43:20;1.43;;;1.43;;
2710;SDS011;20721;47.402;8.550;2023-04-12T00:44:19;1.59;;;1.59;;
2710;SDS011;20721;47.402;8.550;2023-04-12T00:45:18;1.36;;;1.36;;
2710;SDS011;20721;47.402;8.550;2023-04-12T00:46:18;1.36;;;1.36;;
2710;SDS011;20721;47.402;8.550;2023-04-12T00:47:18;1.73;;;1.73;;
2710;SDS011;20721;47.402;8.550;2023-04-12T00:48:18;1.77;;;1.77;;
2710;SDS011;20721;47.402;8.550;2023-04-12T00:49:18;1.85;;;1.85;;
2710;SDS011;20721;47.402;8.550;2023-04-12T00:50:18;1.45;;;1.45;;
2710;SDS011;20721;47.402;8.550;2023-04-12T00:51:18;1.83;;;1.83;;
2710;SDS011;20721;47.402;8.550;2023-04-12T00:52:21;1.74;;;1.74;;
2710;SDS011;20721;47.402;8.550;2023-04-12T00:53:22;1.67;;;1.67;;
2710;SDS011;20721;47.402;8.550;2023-04-12T00:54:18;1.79;;;1.79;;
2710;SDS011;20721;47.402;8.550;2023-04-12T00:55:19;1.61;;;1.61;;
2710;SDS011;20721;47.402;8.550;2023-04-12T00:56:20;1.82;;;1.82;;
2710;SDS011;20721;47.402;8.550;2023-04-12T00:58:19;2.24;;;2.24;;
2710;SDS011;20721;47.402;8.550;2023-04-12T00:59:19;2.42;;;2.42;;
2710;SDS011;20721;47.402;8.550;2023-04-12T01:00:20;1.86;;;1.86;;
2710;SDS011;20721;47.402;8.550;2023-04-12T01:01:19;2.14;;;2.14;;
2710;SDS011;20721;47.402;8.550;2023-04-12T01:02:18;2.25;;;2.25;;
2710;SDS011;20721;47.402;8.550;2023-04-12T01:03:21;1.90;;;1.90;;
2710;SDS011;20721;47.402;8.550;2023-04-12T01:04:23;1.62;;;1.62;;
2710;SDS011;20721;47.402;8.550;2023-04-12T01:05:20;1.64;;;1.64;;
2710;SDS011;20721;47.402;8.550;2023-04-12T01:06:49;1.57;;;1.57;;
2710;SDS011;20721;47.402;8.550;2023-04-12T01:08:27;1.48;;;1.48;;
2710;SDS011;20721;47.402;8.550;2023-04-12T01:09:48;1.80;;;1.80;;
2710;SDS011;20721;47.402;8.550;2023-04-12T01:10:30;1.43;;;1.43;;
2710;SDS011;20721;47.402;8.550;2023-04-12T01:11:31;1.83;;;1.83;;
2710;SDS011;20721;47.402;8.550;2023-04-12T01:13:27;1.99;;;1.99;;
2710;SDS011;20721;47.402;8.550;2023-04-12T01:15:20;1.94;;;1.94;;
2710;SDS011;20721;47.402;8.550;2023-04-12T01:16:28;1.92;;;1.92;;
2710;SDS011;20721;47.402;8.550;2023-04-12T01:17:21;1.73;;;1.73;;
2710;SDS011;20721;47.402;8.550;2023-04-12T01:18:23;1.88;;;1.88;;
2710;SDS011;20721;47.402;8.550;2023-04-12T01:21:23;2.02;;;2.02;;
2710;SDS011;20721;47.402;8.550;2023-04-12T01:24:36;1.66;;;1.66;;
2710;SDS011;20721;47.402;8.550;2023-04-12T01:26:31;2.00;;;2.00;;
2710;SDS011;20721;47.402;8.550;2023-04-12T01:28:21;1.72;;;1.72;;
2710;SDS011;20721;47.402;8.550;2023-04-12T01:30:21;1.86;;;1.86;;
2710;SDS011;20721;47.402;8.550;2023-04-12T01:31:19;2.22;;;2.22;;
2710;SDS011;20721;47.402;8.550;2023-04-12T01:32:20;1.96;;;1.96;;
2710;SDS011;20721;47.402;8.550;2023-04-12T01:33:19;2.14;;;2.14;;
2710;SDS011;20721;47.402;8.550;2023-04-12T01:34:20;1.66;;;1.66;;
2710;SDS011;20721;47.402;8.550;2023-04-12T01:36:21;2.05;;;2.05;;
2710;SDS011;20721;47.402;8.550;2023-04-12T01:37:18;2.20;;;2.20;;
2710;SDS011;20721;47.402;8.550;2023-04-12T01:38:18;1.82;;;1.82;;
2710;SDS011;20721;47.402;8.550;2023-04-12T01:39:19;2.00;;;2.00;;
2710;SDS011;20721;47.402;8.550;2023-04-12T01:40:19;2.40;;;2.40;;
2710;SDS011;20721;47.402;8.550;2023-04-12T01:41:19;2.20;;;2.20;;
2710;SDS011;20721;47.402;8.550;2023-04-12T01:42:19;2.64;;;2.64;;
2710;SDS011;20721;47.402;8.550;2023-04-12T01:43:20;3.04;;;3.04;;
2710;SDS011;20721;47.402;8.550;2023-04-12T01:44:21;2.55;;;2.55;;
2710;SDS011;20721;47.402;8.550;2023-04-12T01:45:18;2.63;;;2.63;;
2710;SDS011;20721;47.402;8.550;2023-04-12T01:46:20;2.58;;;2.58;;
2710;SDS011;20721;47.402;8.550;2023-04-12T01:47:18;2.72;;;2.72;;
2710;SDS011;20721;47.402;8.550;2023-04-12T01:48:20;3.16;;;3.16;;
2710;SDS011;20721;47.402;8.550;2023-04-12T01:49:20;2.50;;;2.50;;
2710;SDS011;20721;47.402;8.550;2023-04-12T01:50:34;2.45;;;2.45;;
2710;SDS011;20721;47.402;8.550;2023-04-12T01:52:21;2.68;;;2.68;;
2710;SDS011;20721;47.402;8.550;2023-04-12T01:53:22;2.45;;;2.45;;
2710;SDS011;20721;47.402;8.550;2023-04-12T01:55:20;2.33;;;2.33;;
2710;SDS011;20721;47.402;8.550;2023-04-12T01:56:19;2.67;;;2.67;;
2710;SDS011;20721;47.402;8.550;2023-04-12T01:58:20;2.83;;;2.83;;
2710;SDS011;20721;47.402;8.550;2023-04-12T01:59:19;3.12;;;3.12;;
2710;SDS011;20721;47.402;8.550;2023-04-12T02:00:20;3.19;;;3.19;;
2710;SDS011;20721;47.402;8.550;2023-04-12T02:01:21;2.95;;;2.95;;
2710;SDS011;20721;47.402;8.550;2023-04-12T02:02:19;3.18;;;3.18;;
2710;SDS011;20721;47.402;8.550;2023-04-12T02:03:19;2.93;;;2.93;;
2710;SDS011;20721;47.402;8.550;2023-04-12T02:04:19;3.14;;;3.14;;
2710;SDS011;20721;47.402;8.550;2023-04-12T02:05:18;2.97;;;2.97;;
2710;SDS011;20721;47.402;8.550;2023-04-12T02:06:18;3.39;;;3.39;;
2710;SDS011;20721;47.402;8.550;2023-04-12T02:07:18;3.05;;;3.05;;
2710;SDS011;20721;47.402;8.550;2023-04-12T02:08:18;3.38;;;3.38;;
2710;SDS011;20721;47.402;8.550;2023-04-12T02:09:19;3.04;;;3.04;;
2710;SDS011;20721;47.402;8.550;2023-04-12T02:10:30;2.78;;;2.78;;
2710;SDS011;20721;47.402;8.550;2023-04-12T02:11:20;3.18;;;3.18;;
2710;SDS011;20721;47.402;8.550;2023-04-12T02:12:18;3.06;;;3.06;;
2710;SDS011;20721;47.402;8.550;2023-04-12T02:13:19;3.00;;;3.00;;
2710;SDS011;20721;47.402;8.550;2023-04-12T02:14:19;3.67;;;3.67;;
2710;SDS011;20721;47.402;8.550;2023-04-12T02:15:18;3.15;;;3.15;;
2710;SDS011;20721;47.402;8.550;2023-04-12T02:16:24;3.43;;;3.43;;
2710;SDS011;20721;47.402;8.550;2023-04-12T02:17:18;2.91;;;2.91;;
2710;SDS011;20721;47.402;8.550;2023-04-12T02:18:19;2.93;;;2.93;;
2710;SDS011;20721;47.402;8.550;2023-04-12T02:19:19;3.21;;;3.21;;
2710;SDS011;20721;47.402;8.550;2023-04-12T02:22:18;3.56;;;3.56;;
2710;SDS011;20721;47.402;8.550;2023-04-12T02:23:18;2.70;;;2.70;;
2710;SDS011;20721;47.402;8.550;2023-04-12T02:24:19;2.87;;;2.87;;
2710;SDS011;20721;47.402;8.550;2023-04-12T02:25:18;2.76;;;2.76;;
2710;SDS011;20721;47.402;8.550;2023-04-12T02:26:19;2.58;;;2.58;;
2710;SDS011;20721;47.402;8.550;2023-04-12T02:27:18;2.68;;;2.68;;
2710;SDS011;20721;47.402;8.550;2023-04-12T02:28:18;3.42;;;3.42;;
2710;SDS011;20721;47.402;8.550;2023-04-12T02:29:19;2.94;;;2.94;;
2710;SDS011;20721;47.402;8.550;2023-04-12T02:30:18;3.40;;;3.40;;
2710;SDS011;20721;47.402;8.550;2023-04-12T02:31:18;2.81;;;2.81;;
2710;SDS011;20721;47.402;8.550;2023-04-12T02:32:18;2.84;;;2.84;;
2710;SDS011;20721;47.402;8.550;2023-04-12T02:33:18;2.83;;;2.83;;
2710;SDS011;20721;47.402;8.550;2023-04-12T02:34:18;3.02;;;3.02;;
2710;SDS011;20721;47.402;8.550;2023-04-12T02:35:20;2.77;;;2.77;;
2710;SDS011;20721;47.402;8.550;2023-04-12T02:36:19;3.17;;;3.17;;
2710;SDS011;20721;47.402;8.550;2023-04-12T02:37:19;2.99;;;2.99;;
2710;SDS011;20721;47.402;8.550;2023-04-12T02:38:19;2.85;;;2.85;;
2710;SDS011;20721;47.402;8.550;2023-04-12T02:39:19;2.47;;;2.47;;
2710;SDS011;20721;47.402;8.550;2023-04-12T02:40:20;2.60;;;2.60;;
2710;SDS011;20721;47.402;8.550;2023-04-12T02:41:19;2.17;;;2.17;;
2710;SDS011;20721;47.402;8.550;2023-04-12T02:42:18;2.60;;;2.60;;
2710;SDS011;20721;47.402;8.550;2023-04-12T02:43:18;2.83;;;2.83;;
2710;SDS011;20721;47.402;8.550;2023-04-12T02:44:18;2.70;;;2.70;;
2710;SDS011;20721;47.402;8.550;2023-04-12T02:45:19;2.52;;;2.52;;
2710;SDS011;20721;47.402;8.550;2023-04-12T02:46:21;2.73;;;2.73;;
2710;SDS011;20721;47.402;8.550;2023-04-12T02:47:18;2.38;;;2.38;;
2710;SDS011;20721;47.402;8.550;2023-04-12T02:48:18;2.76;;;2.76;;
2710;SDS011;20721;47.402;8.550;2023-04-12T02:49:18;2.33;;;2.33;;
2710;SDS011;20721;47.402;8.550;2023-04-12T02:50:20;2.69;;;2.69;;
2710;SDS011;20721;47.402;8.550;2023-04-12T02:51:18;2.88;;;2.88;;
2710;SDS011;20721;47.402;8.550;2023-04-12T02:52:18;2.55;;;2.55;;
2710;SDS011;20721;47.402;8.550;2023-04-12T02:53:18;2.63;;;2.63;;
2710;SDS011;20721;47.402;8.550;2023-04-12T02:54:18;2.18;;;2.18;;
2710;SDS011;20721;47.402;8.550;2023-04-12T02:55:18;2.89;;;2.89;;
2710;SDS011;20721;47.402;8.550;2023-04-12T02:56:19;2.16;;;2.16;;
2710;SDS011;20721;47.402;8.550;2023-04-12T02:57:20;2.60;;;2.60;;
2710;SDS011;20721;47.402;8.550;2023-04-12T02:58:18;2.30;;;2.30;;
2710;SDS011;20721;47.402;8.550;2023-04-12T02:59:18;2.24;;;2.24;;
2710;SDS011;20721;47.402;8.550;2023-04-12T03:00:21;2.44;;;2.44;;
2710;SDS011;20721;47.402;8.550;2023-04-12T03:02:19;2.37;;;2.37;;
2710;SDS011;20721;47.402;8.550;2023-04-12T03:03:18;2.54;;;2.54;;
2710;SDS011;20721;47.402;8.550;2023-04-12T03:04:18;2.44;;;2.44;;
2710;SDS011;20721;47.402;8.550;2023-04-12T03:05:19;2.47;;;2.47;;
2710;SDS011;20721;47.402;8.550;2023-04-12T03:06:18;2.19;;;2.19;;
2710;SDS011;20721;47.402;8.550;2023-04-12T03:07:19;2.35;;;2.35;;
2710;SDS011;20721;47.402;8.550;2023-04-12T03:08:18;2.27;;;2.27;;
2710;SDS011;20721;47.402;8.550;2023-04-12T03:09:18;2.34;;;2.34;;
2710;SDS011;20721;47.402;8.550;2023-04-12T03:10:20;2.54;;;2.54;;
2710;SDS011;20721;47.402;8.550;2023-04-12T03:11:18;2.68;;;2.68;;
2710;SDS011;20721;47.402;8.550;2023-04-12T03:12:18;2.78;;;2.78;;
2710;SDS011;20721;47.402;8.550;2023-04-12T03:13:18;3.01;;;3.01;;
2710;SDS011;20721;47.402;8.550;2023-04-12T03:14:18;2.44;;;2.44;;
2710;SDS011;20721;47.402;8.550;2023-04-12T03:15:19;2.46;;;2.46;;
2710;SDS011;20721;47.402;8.550;2023-04-12T03:16:28;2.81;;;2.81;;
2710;SDS011;20721;47.402;8.550;2023-04-12T03:17:18;3.05;;;3.05;;
2710;SDS011;20721;47.402;8.550;2023-04-12T03:18:19;3.25;;;3.25;;
2710;SDS011;20721;47.402;8.550;2023-04-12T03:19:18;3.02;;;3.02;;
2710;SDS011;20721;47.402;8.550;2023-04-12T03:20:19;2.94;;;2.94;;
2710;SDS011;20721;47.402;8.550;2023-04-12T03:21:18;2.70;;;2.70;;
2710;SDS011;20721;47.402;8.550;2023-04-12T03:22:18;2.49;;;2.49;;
2710;SDS011;20721;47.402;8.550;2023-04-12T03:23:19;2.64;;;2.64;;
2710;SDS011;20721;47.402;8.550;2023-04-12T03:24:19;2.95;;;2.95;;
2710;SDS011;20721;47.402;8.550;2023-04-12T03:25:19;2.92;;;2.92;;
2710;SDS011;20721;47.402;8.550;2023-04-12T03:26:18;2.66;;;2.66;;
2710;SDS011;20721;47.402;8.550;2023-04-12T03:27:20;2.44;;;2.44;;
2710;SDS011;20721;47.402;8.550;2023-04-12T03:28:18;2.34;;;2.34;;
2710;SDS011;20721;47.402;8.550;2023-04-12T03:29:21;2.71;;;2.71;;
2710;SDS011;20721;47.402;8.550;2023-04-12T03:30:25;2.58;;;2.58;;
2710;SDS011;20721;47.402;8.550;2023-04-12T03:31:19;2.92;;;2.92;;
2710;SDS011;20721;47.402;8.550;2023-04-12T03:33:20;2.85;;;2.85;;
2710;SDS011;20721;47.402;8.550;2023-04-12T03:34:18;2.92;;;2.92;;
2710;SDS011;20721;47.402;8.550;2023-04-12T03:36:19;2.48;;;2.48;;
2710;SDS011;20721;47.402;8.550;2023-04-12T03:38:18;2.96;;;2.96;;
2710;SDS011;20721;47.402;8.550;2023-04-12T03:39:18;2.60;;;2.60;;
2710;SDS011;20721;47.402;8.550;2023-04-12T03:41:20;2.41;;;2.41;;
2710;SDS011;20721;47.402;8.550;2023-04-12T03:42:28;2.51;;;2.51;;
2710;SDS011;20721;47.402;8.550;2023-04-12T03:43:18;2.51;;;2.51;;
2710;SDS011;20721;47.402;8.550;2023-04-12T03:44:18;2.38;;;2.38;;
2710;SDS011;20721;47.402;8.550;2023-04-12T03:45:19;2.47;;;2.47;;
2710;SDS011;20721;47.402;8.550;2023-04-12T03:46:19;2.52;;;2.52;;
2710;SDS011;20721;47.402;8.550;2023-04-12T03:48:20;2.45;;;2.45;;
2710;SDS011;20721;47.402;8.550;2023-04-12T03:50:22;2.27;;;2.27;;
2710;SDS011;20721;47.402;8.550;2023-04-12T03:51:21;2.37;;;2.37;;
2710;SDS011;20721;47.402;8.550;2023-04-12T03:52:18;2.66;;;2.66;;
2710;SDS011;20721;47.402;8.550;2023-04-12T03:54:19;2.50;;;2.50;;
2710;SDS011;20721;47.402;8.550;2023-04-12T03:55:19;2.05;;;2.05;;
2710;SDS011;20721;47.402;8.550;2023-04-12T03:56:19;2.41;;;2.41;;
2710;SDS011;20721;47.402;8.550;2023-04-12T03:58:19;2.67;;;2.67;;
2710;SDS011;20721;47.402;8.550;2023-04-12T03:59:18;2.81;;;2.81;;
2710;SDS011;20721;47.402;8.550;2023-04-12T04:01:19;2.31;;;2.31;;
2710;SDS011;20721;47.402;8.550;2023-04-12T04:02:19;2.51;;;2.51;;
2710;SDS011;20721;47.402;8.550;2023-04-12T04:03:19;2.16;;;2.16;;
2710;SDS011;20721;47.402;8.550;2023-04-12T04:04:21;2.30;;;2.30;;
2710;SDS011;20721;47.402;8.550;2023-04-12T04:05:22;2.22;;;2.22;;
2710;SDS011;20721;47.402;8.550;2023-04-12T04:06:19;2.21;;;2.21;;
2710;SDS011;20721;47.402;8.550;2023-04-12T04:07:20;1.83;;;1.83;;
2710;SDS011;20721;47.402;8.550;2023-04-12T04:08:19;2.10;;;2.10;;
2710;SDS011;20721;47.402;8.550;2023-04-12T04:09:19;2.38;;;2.38;;
2710;SDS011;20721;47.402;8.550;2023-04-12T04:10:20;2.57;;;2.57;;
2710;SDS011;20721;47.402;8.550;2023-04-12T04:11:20;2.74;;;2.74;;
2710;SDS011;20721;47.402;8.550;2023-04-12T04:12:18;2.51;;;2.51;;
2710;SDS011;20721;47.402;8.550;2023-04-12T04:13:18;2.62;;;2.62;;
2710;SDS011;20721;47.402;8.550;2023-04-12T04:14:18;2.84;;;2.84;;
2710;SDS011;20721;47.402;8.550;2023-04-12T04:15:19;2.80;;;2.80;;
2710;SDS011;20721;47.402;8.550;2023-04-12T04:16:19;2.88;;;2.88;;
2710;SDS011;20721;47.402;8.550;2023-04-12T04:17:18;2.56;;;2.56;;
2710;SDS011;20721;47.402;8.550;2023-04-12T04:18:19;2.93;;;2.93;;
2710;SDS011;20721;47.402;8.550;2023-04-12T04:19:18;2.96;;;2.96;;
2710;SDS011;20721;47.402;8.550;2023-04-12T04:20:21;3.44;;;3.44;;
2710;SDS011;20721;47.402;8.550;2023-04-12T04:21:19;2.45;;;2.45;;
2710;SDS011;20721;47.402;8.550;2023-04-12T04:22:19;2.46;;;2.46;;
2710;SDS011;20721;47.402;8.550;2023-04-12T04:23:21;2.52;;;2.52;;
2710;SDS011;20721;47.402;8.550;2023-04-12T04:24:20;1.97;;;1.97;;
2710;SDS011;20721;47.402;8.550;2023-04-12T04:25:19;1.71;;;1.71;;
2710;SDS011;20721;47.402;8.550;2023-04-12T04:26:20;2.04;;;2.04;;
2710;SDS011;20721;47.402;8.550;2023-04-12T04:27:19;1.76;;;1.76;;
2710;SDS011;20721;47.402;8.550;2023-04-12T04:28:18;1.70;;;1.70;;
2710;SDS011;20721;47.402;8.550;2023-04-12T04:29:19;1.65;;;1.65;;
2710;SDS011;20721;47.402;8.550;2023-04-12T04:30:20;2.00;;;2.00;;
2710;SDS011;20721;47.402;8.550;2023-04-12T04:31:20;1.98;;;1.98;;
2710;SDS011;20721;47.402;8.550;2023-04-12T04:32:19;2.00;;;2.00;;
2710;SDS011;20721;47.402;8.550;2023-04-12T04:33:19;1.94;;;1.94;;
2710;SDS011;20721;47.402;8.550;2023-04-12T04:34:20;2.33;;;2.33;;
2710;SDS011;20721;47.402;8.550;2023-04-12T04:35:19;2.12;;;2.12;;
2710;SDS011;20721;47.402;8.550;2023-04-12T04:36:19;2.17;;;2.17;;
2710;SDS011;20721;47.402;8.550;2023-04-12T04:37:19;1.85;;;1.85;;
2710;SDS011;20721;47.402;8.550;2023-04-12T04:38:19;1.81;;;1.81;;
2710;SDS011;20721;47.402;8.550;2023-04-12T04:39:19;1.66;;;1.66;;
2710;SDS011;20721;47.402;8.550;2023-04-12T04:40:20;1.91;;;1.91;;
2710;SDS011;20721;47.402;8.550;2023-04-12T04:41:21;1.69;;;1.69;;
2710;SDS011;20721;47.402;8.550;2023-04-12T04:42:20;1.80;;;1.80;;
2710;SDS011;20721;47.402;8.550;2023-04-12T04:43:19;1.66;;;1.66;;
2710;SDS011;20721;47.402;8.550;2023-04-12T04:44:19;1.86;;;1.86;;
2710;SDS011;20721;47.402;8.550;2023-04-12T04:45:23;1.93;;;1.93;;
2710;SDS011;20721;47.402;8.550;2023-04-12T04:46:19;1.69;;;1.69;;
2710;SDS011;20721;47.402;8.550;2023-04-12T04:47:20;1.63;;;1.63;;
2710;SDS011;20721;47.402;8.550;2023-04-12T04:48:19;2.02;;;2.02;;
2710;SDS011;20721;47.402;8.550;2023-04-12T04:49:19;1.80;;;1.80;;
2710;SDS011;20721;47.402;8.550;2023-04-12T04:50:19;1.96;;;1.96;;
2710;SDS011;20721;47.402;8.550;2023-04-12T04:51:19;1.72;;;1.72;;
2710;SDS011;20721;47.402;8.550;2023-04-12T04:52:19;1.76;;;1.76;;
2710;SDS011;20721;47.402;8.550;2023-04-12T04:55:22;2.38;;;2.38;;
2710;SDS011;20721;47.402;8.550;2023-04-12T04:56:19;2.42;;;2.42;;
2710;SDS011;20721;47.402;8.550;2023-04-12T04:57:20;2.47;;;2.47;;
2710;SDS011;20721;47.402;8.550;2023-04-12T04:58:19;2.57;;;2.57;;
2710;SDS011;20721;47.402;8.550;2023-04-12T05:00:20;3.10;;;3.10;;
2710;SDS011;20721;47.402;8.550;2023-04-12T05:01:22;3.00;;;3.00;;
2710;SDS011;20721;47.402;8.550;2023-04-12T05:02:19;2.93;;;2.93;;
2710;SDS011;20721;47.402;8.550;2023-04-12T05:03:19;3.32;;;3.32;;
2710;SDS011;20721;47.402;8.550;2023-04-12T05:04:19;3.01;;;3.01;;
2710;SDS011;20721;47.402;8.550;2023-04-12T05:05:19;3.21;;;3.21;;
2710;SDS011;20721;47.402;8.550;2023-04-12T05:06:20;3.22;;;3.22;;
2710;SDS011;20721;47.402;8.550;2023-04-12T05:07:19;3.09;;;3.09;;
2710;SDS011;20721;47.402;8.550;2023-04-12T05:08:19;2.84;;;2.84;;
2710;SDS011;20721;47.402;8.550;2023-04-12T05:09:19;3.27;;;3.27;;
2710;SDS011;20721;47.402;8.550;2023-04-12T05:10:19;2.47;;;2.47;;
2710;SDS011;20721;47.402;8.550;2023-04-12T05:11:19;2.90;;;2.90;;
2710;SDS011;20721;47.402;8.550;2023-04-12T05:12:19;2.35;;;2.35;;
2710;SDS011;20721;47.402;8.550;2023-04-12T05:13:19;2.23;;;2.23;;
2710;SDS011;20721;47.402;8.550;2023-04-12T05:14:22;2.63;;;2.63;;
2710;SDS011;20721;47.402;8.550;2023-04-12T05:15:22;3.03;;;3.02;;
2710;SDS011;20721;47.402;8.550;2023-04-12T05:16:20;2.72;;;2.72;;
2710;SDS011;20721;47.402;8.550;2023-04-12T05:17:19;2.84;;;2.84;;
2710;SDS011;20721;47.402;8.550;2023-04-12T05:18:22;2.55;;;2.55;;
2710;SDS011;20721;47.402;8.550;2023-04-12T05:19:19;2.22;;;2.22;;
2710;SDS011;20721;47.402;8.550;2023-04-12T05:23:19;2.37;;;2.37;;
2710;SDS011;20721;47.402;8.550;2023-04-12T05:24:21;2.51;;;2.51;;
2710;SDS011;20721;47.402;8.550;2023-04-12T05:25:19;1.92;;;1.92;;
2710;SDS011;20721;47.402;8.550;2023-04-12T05:26:19;2.56;;;2.56;;
2710;SDS011;20721;47.402;8.550;2023-04-12T05:27:19;2.97;;;2.97;;
2710;SDS011;20721;47.402;8.550;2023-04-12T05:28:23;2.73;;;2.73;;
2710;SDS011;20721;47.402;8.550;2023-04-12T05:30:19;2.73;;;2.73;;
2710;SDS011;20721;47.402;8.550;2023-04-12T05:31:19;2.37;;;2.37;;
2710;SDS011;20721;47.402;8.550;2023-04-12T05:32:19;2.53;;;2.53;;
2710;SDS011;20721;47.402;8.550;2023-04-12T05:33:19;2.38;;;2.38;;
2710;SDS011;20721;47.402;8.550;2023-04-12T05:34:19;2.63;;;2.63;;
2710;SDS011;20721;47.402;8.550;2023-04-12T05:35:19;2.42;;;2.42;;
2710;SDS011;20721;47.402;8.550;2023-04-12T05:36:19;3.07;;;3.07;;
2710;SDS011;20721;47.402;8.550;2023-04-12T05:37:19;2.71;;;2.71;;
2710;SDS011;20721;47.402;8.550;2023-04-12T05:38:19;2.75;;;2.75;;
2710;SDS011;20721;47.402;8.550;2023-04-12T05:39:19;2.71;;;2.71;;
2710;SDS011;20721;47.402;8.550;2023-04-12T05:40:19;2.94;;;2.94;;
2710;SDS011;20721;47.402;8.550;2023-04-12T05:41:19;2.68;;;2.68;;
2710;SDS011;20721;47.402;8.550;2023-04-12T05:42:19;3.11;;;3.11;;
2710;SDS011;20721;47.402;8.550;2023-04-12T05:43:21;2.55;;;2.55;;
2710;SDS011;20721;47.402;8.550;2023-04-12T05:44:19;2.91;;;2.91;;
2710;SDS011;20721;47.402;8.550;2023-04-12T05:45:19;2.48;;;2.48;;
2710;SDS011;20721;47.402;8.550;2023-04-12T05:46:20;2.71;;;2.71;;
2710;SDS011;20721;47.402;8.550;2023-04-12T05:47:19;2.59;;;2.59;;
2710;SDS011;20721;47.402;8.550;2023-04-12T05:48:19;2.33;;;2.33;;
2710;SDS011;20721;47.402;8.550;2023-04-12T05:49:19;2.20;;;2.20;;
2710;SDS011;20721;47.402;8.550;2023-04-12T05:50:19;2.49;;;2.49;;
2710;SDS011;20721;47.402;8.550;2023-04-12T05:51:19;2.54;;;2.54;;
2710;SDS011;20721;47.402;8.550;2023-04-12T05:52:19;2.56;;;2.56;;
2710;SDS011;20721;47.402;8.550;2023-04-12T05:53:20;3.27;;;3.27;;
2710;SDS011;20721;47.402;8.550;2023-04-12T05:54:19;3.09;;;3.09;;
2710;SDS011;20721;47.402;8.550;2023-04-12T05:55:21;2.98;;;2.98;;
2710;SDS011;20721;47.402;8.550;2023-04-12T05:56:19;3.12;;;3.12;;
2710;SDS011;20721;47.402;8.550;2023-04-12T05:57:19;3.32;;;3.32;;
2710;SDS011;20721;47.402;8.550;2023-04-12T05:58:19;2.81;;;2.81;;
2710;SDS011;20721;47.402;8.550;2023-04-12T05:59:20;2.83;;;2.83;;
2710;SDS011;20721;47.402;8.550;2023-04-12T06:00:23;3.00;;;3.00;;
2710;SDS011;20721;47.402;8.550;2023-04-12T06:01:21;2.89;;;2.89;;
2710;SDS011;20721;47.402;8.550;2023-04-12T06:02:19;2.71;;;2.71;;
2710;SDS011;20721;47.402;8.550;2023-04-12T06:03:21;3.03;;;3.03;;
2710;SDS011;20721;47.402;8.550;2023-04-12T06:04:19;2.82;;;2.82;;
2710;SDS011;20721;47.402;8.550;2023-04-12T06:05:20;2.53;;;2.53;;
2710;SDS011;20721;47.402;8.550;2023-04-12T06:06:19;2.56;;;2.56;;
2710;SDS011;20721;47.402;8.550;2023-04-12T06:07:19;2.84;;;2.84;;
2710;SDS011;20721;47.402;8.550;2023-04-12T06:08:19;2.53;;;2.53;;
2710;SDS011;20721;47.402;8.550;2023-04-12T06:09:19;2.33;;;2.33;;
2710;SDS011;20721;47.402;8.550;2023-04-12T06:10:19;2.60;;;2.60;;
2710;SDS011;20721;47.402;8.550;2023-04-12T06:11:21;3.03;;;3.03;;
2710;SDS011;20721;47.402;8.550;2023-04-12T06:12:19;2.32;;;2.32;;
2710;SDS011;20721;47.402;8.550;2023-04-12T06:13:19;3.10;;;3.10;;
2710;SDS011;20721;47.402;8.550;2023-04-12T06:14:22;3.00;;;3.00;;
2710;SDS011;20721;47.402;8.550;2023-04-12T06:15:20;2.94;;;2.94;;
2710;SDS011;20721;47.402;8.550;2023-04-12T06:16:20;2.93;;;2.93;;
2710;SDS011;20721;47.402;8.550;2023-04-12T06:17:19;3.64;;;3.64;;
2710;SDS011;20721;47.402;8.550;2023-04-12T06:18:19;2.97;;;2.97;;
2710;SDS011;20721;47.402;8.550;2023-04-12T06:20:19;3.21;;;3.21;;
2710;SDS011;20721;47.402;8.550;2023-04-12T06:21:19;2.69;;;2.69;;
2710;SDS011;20721;47.402;8.550;2023-04-12T06:22:19;3.56;;;3.56;;
2710;SDS011;20721;47.402;8.550;2023-04-12T06:23:19;3.11;;;3.11;;
2710;SDS011;20721;47.402;8.550;2023-04-12T06:24:19;3.23;;;3.23;;
2710;SDS011;20721;47.402;8.550;2023-04-12T06:25:19;3.11;;;3.11;;
2710;SDS011;20721;47.402;8.550;2023-04-12T06:26:19;3.22;;;3.22;;
2710;SDS011;20721;47.402;8.550;2023-04-12T06:27:19;3.08;;;3.08;;
2710;SDS011;20721;47.402;8.550;2023-04-12T06:28:19;3.78;;;3.78;;
2710;SDS011;20721;47.402;8.550;2023-04-12T06:29:19;3.21;;;3.21;;
2710;SDS011;20721;47.402;8.550;2023-04-12T06:30:19;3.31;;;3.31;;
2710;SDS011;20721;47.402;8.550;2023-04-12T06:31:19;3.00;;;3.00;;
2710;SDS011;20721;47.402;8.550;2023-04-12T06:33:20;3.09;;;3.09;;
2710;SDS011;20721;47.402;8.550;2023-04-12T06:34:19;2.82;;;2.82;;
2710;SDS011;20721;47.402;8.550;2023-04-12T06:35:19;2.45;;;2.45;;
2710;SDS011;20721;47.402;8.550;2023-04-12T06:36:20;2.51;;;2.51;;
2710;SDS011;20721;47.402;8.550;2023-04-12T06:37:20;2.86;;;2.86;;
2710;SDS011;20721;47.402;8.550;2023-04-12T06:38:21;2.65;;;2.65;;
2710;SDS011;20721;47.402;8.550;2023-04-12T06:39:21;2.73;;;2.73;;
2710;SDS011;20721;47.402;8.550;2023-04-12T06:40:21;2.32;;;2.32;;
2710;SDS011;20721;47.402;8.550;2023-04-12T06:41:19;2.25;;;2.25;;
2710;SDS011;20721;47.402;8.550;2023-04-12T06:42:19;2.29;;;2.29;;
2710;SDS011;20721;47.402;8.550;2023-04-12T06:43:19;2.43;;;2.43;;
2710;SDS011;20721;47.402;8.550;2023-04-12T06:44:19;2.51;;;2.51;;
2710;SDS011;20721;47.402;8.550;2023-04-12T06:45:19;2.62;;;2.62;;